Time;durP1;ratioP1;P1;durP2;ratioP2;P2;SDS_P1;SDS_P2;PMS_P1;PMS_P2;Temp;Humidity;BMP_temperature;BMP_pressure;BME280_temperature;BME280_humidity;BME280_pressure;Samples;Min_cycle;Max_cycle;Signal;HPM_P1;HPM_P2
2022/10/05 10:19:02;;;;;;;;;;;19.40;99.90;;;;;;4822920;23;19929;-65
2022/10/05 10:21:47;;;;;;;;;;;19.40;99.90;;;;;;4812813;29;19933;-65
2022/10/05 10:24:18;;;;;;;;;;;19.20;99.90;;;;;;4804085;29;19933;-66
2022/10/05 10:27:04;;;;;;;;;;;19.20;99.90;;;;;;4809202;29;20120;-66
2022/10/05 10:29:49;;;;;;;;;;;19.30;99.90;;;;;;4805424;29;19929;-67
2022/10/05 10:32:24;;;;;;;;;;;19.50;99.90;;;;;;4809712;29;19939;-66
2022/10/05 10:34:59;;;;;;;;;;;19.40;99.90;;;;;;4816649;29;19978;-67
2022/10/05 10:37:38;;;;;;;;;;;19.20;99.90;;;;;;4814218;29;20372;-66
2022/10/05 10:40:22;;;;;;;;;;;19.10;99.90;;;;;;4815711;29;19928;-65
2022/10/05 10:42:58;;;;;;;;;;;19.20;99.90;;;;;;4807680;29;19971;-67
2022/10/05 10:45:32;;;;;;;;;;;19.40;99.90;;;;;;4809734;29;20216;-66
2022/10/05 10:48:03;;;;;;;;;;;19.40;99.90;;;;;;4812476;29;19929;-66
2022/10/05 10:50:48;;;;;;;;;;;19.60;99.90;;;;;;4807241;29;20023;-66
2022/10/05 10:53:22;;;;;;;;;;;19.90;99.90;;;;;;4811358;29;20410;-67
2022/10/05 10:55:55;;;;;;;;;;;20.00;99.90;;;;;;4815191;29;19936;-66
2022/10/05 10:58:36;;;;;;;;;;;19.90;99.90;;;;;;4818879;29;20020;-66
2022/10/05 11:01:12;;;;;;;;;;;20.00;99.90;;;;;;4813604;29;21419;-67
2022/10/05 11:04:03;;;;;;;;;;;19.60;99.90;;;;;;4814783;29;19979;-67
2022/10/05 11:06:39;;;;;;;;;;;19.40;99.90;;;;;;4799138;29;19980;-67
2022/10/05 11:09:21;;;;;;;;;;;19.30;99.90;;;;;;4805104;29;19928;-67
2022/10/05 11:11:59;;;;;;;;;;;19.20;99.90;;;;;;4804645;29;20308;-66
2022/10/05 11:14:39;;;;;;;;;;;19.20;99.90;;;;;;4803685;29;19929;-69
2022/10/05 11:17:17;;;;;;;;;;;19.40;99.90;;;;;;4808901;29;19998;-65
2022/10/05 11:19:55;;;;;;;;;;;19.50;99.90;;;;;;4807190;29;20021;-67
2022/10/05 11:22:37;;;;;;;;;;;19.30;99.90;;;;;;4804596;29;19980;-66
2022/10/05 11:25:19;;;;;;;;;;;19.20;99.90;;;;;;4806874;29;19936;-67
2022/10/05 11:28:03;;;;;;;;;;;19.20;99.90;;;;;;4811904;29;20278;-67
2022/10/05 11:30:44;;;;;;;;;;;19.20;99.90;;;;;;4807388;29;20019;-67
2022/10/05 11:33:29;;;;;;;;;;;19.30;99.90;;;;;;4816280;29;19976;-67
2022/10/05 11:36:03;;;;;;;;;;;19.40;99.90;;;;;;4804226;29;19935;-67
2022/10/05 11:38:51;;;;;;;;;;;19.60;99.90;;;;;;4816434;29;19929;-68
2022/10/05 11:41:27;;;;;;;;;;;19.70;99.90;;;;;;4808489;29;19929;-67
2022/10/05 11:44:11;;;;;;;;;;;19.80;99.90;;;;;;4816580;29;19929;-67
2022/10/05 11:46:41;;;;;;;;;;;19.90;99.90;;;;;;4806646;29;19928;-68
2022/10/05 11:49:19;;;;;;;;;;;19.60;99.90;;;;;;4811177;29;19944;-67
2022/10/05 11:51:50;;;;;;;;;;;19.50;99.90;;;;;;4805135;29;20436;-68
2022/10/05 11:54:26;;;;;;;;;;;19.40;99.90;;;;;;4810181;29;19929;-67
2022/10/05 11:56:56;;;;;;;;;;;19.40;99.90;;;;;;4818952;29;20035;-66
2022/10/05 11:59:27;;;;;;;;;;;19.40;99.90;;;;;;4802721;29;19940;-67
2022/10/05 12:01:57;;;;;;;;;;;19.60;99.90;;;;;;4806569;29;19933;-67
2022/10/05 12:04:29;;;;;;;;;;;19.80;99.90;;;;;;4813328;29;19933;-67
2022/10/05 12:07:02;;;;;;;;;;;19.90;99.90;;;;;;4813371;29;20064;-67
2022/10/05 12:10:12;;;;;;;;;;;19.90;99.90;;;;;;4808648;29;19933;-67
2022/10/05 12:12:31;;;;;;;;;;;19.90;99.90;;;;;;4811638;29;20692;-67
2022/10/05 12:15:02;;;;;;;;;;;19.80;99.90;;;;;;4810015;29;20157;-67
2022/10/05 12:17:33;;;;;;;;;;;20.00;99.90;;;;;;4809801;29;20031;-68
2022/10/05 12:20:02;;;;;;;;;;;19.90;99.90;;;;;;4807444;29;19937;-67
2022/10/05 12:22:31;;;;;;;;;;;19.90;99.90;;;;;;4814027;29;20031;-66
2022/10/05 12:25:03;;;;;;;;;;;19.80;99.90;;;;;;4808964;29;19929;-68
2022/10/05 12:27:33;;;;;;;;;;;19.60;99.90;;;;;;4817308;29;19932;-67
2022/10/05 12:30:03;;;;;;;;;;;19.60;99.90;;;;;;4807682;29;19943;-67
2022/10/05 12:32:33;;;;;;;;;;;19.70;99.90;;;;;;4808432;29;19929;-68
2022/10/05 12:35:03;;;;;;;;;;;19.80;99.90;;;;;;4806349;29;19998;-67
2022/10/05 12:37:40;;;;;;;;;;;20.00;99.90;;;;;;4814306;29;19933;-67
2022/10/05 12:40:16;;;;;;;;;;;19.90;99.90;;;;;;4813357;29;19929;-67
2022/10/05 12:42:49;;;;;;;;;;;19.90;99.90;;;;;;4810647;29;19937;-68
2022/10/05 12:45:19;;;;;;;;;;;19.70;99.90;;;;;;4806079;29;19933;-67
2022/10/05 12:47:57;;;;;;;;;;;19.70;99.90;;;;;;4807301;29;20309;-68
2022/10/05 12:50:27;;;;;;;;;;;19.60;99.90;;;;;;4806253;29;19929;-67
2022/10/05 12:52:59;;;;;;;;;;;19.20;99.90;;;;;;4807503;29;19936;-68
2022/10/05 12:55:30;;;;;;;;;;;19.00;99.90;;;;;;4816123;29;19936;-67
2022/10/05 12:58:04;;;;;;;;;;;19.20;99.90;;;;;;4807924;29;19956;-69
2022/10/05 13:00:33;;;;;;;;;;;19.30;99.90;;;;;;4805836;29;19929;-67
2022/10/05 13:03:01;;;;;;;;;;;19.40;99.90;;;;;;4815838;29;19960;-67
2022/10/05 13:05:30;;;;;;;;;;;19.10;99.90;;;;;;4812904;29;19929;-67
2022/10/05 13:08:20;;;;;;;;;;;19.00;99.90;;;;;;5097783;27;20644;-67
2022/10/05 13:10:49;;;;;;;;;;;18.80;99.90;;;;;;5077585;28;19964;-68
2022/10/05 13:13:23;;;;;;;;;;;18.70;99.90;;;;;;5075368;28;19964;-67
2022/10/05 13:15:51;;;;;;;;;;;18.60;99.90;;;;;;5078338;28;20098;-68
2022/10/05 13:18:23;;;;;;;;;;;18.50;99.90;;;;;;5070751;28;19951;-67
2022/10/05 13:20:52;;;;;;;;;;;18.30;99.90;;;;;;5070217;28;20032;-67
2022/10/05 13:23:25;;;;;;;;;;;18.30;99.90;;;;;;5081012;28;19931;-67
2022/10/05 13:25:55;;;;;;;;;;;18.30;99.90;;;;;;5071361;28;19928;-67
2022/10/05 13:28:24;;;;;;;;;;;18.20;99.90;;;;;;5078698;28;20051;-67
2022/10/05 13:30:54;;;;;;;;;;;18.00;99.90;;;;;;5077478;28;19924;-67
2022/10/05 13:33:25;;;;;;;;;;;17.90;99.90;;;;;;5074887;28;19928;-67
2022/10/05 13:35:56;;;;;;;;;;;17.70;99.90;;;;;;5072498;28;20011;-66
2022/10/05 13:38:33;;;;;;;;;;;17.60;99.90;;;;;;5068116;28;19982;-68
2022/10/05 13:41:02;;;;;;;;;;;17.60;99.90;;;;;;5069477;28;19956;-66
2022/10/05 13:43:38;;;;;;;;;;;17.70;99.90;;;;;;5070621;28;20019;-67
2022/10/05 13:46:07;;;;;;;;;;;17.70;99.90;;;;;;5069839;28;19951;-67
2022/10/05 13:48:45;;;;;;;;;;;17.70;99.90;;;;;;5071776;28;19929;-66
2022/10/05 13:51:14;;;;;;;;;;;17.70;99.90;;;;;;5064675;28;19925;-68
2022/10/05 13:53:46;;;;;;;;;;;17.70;99.90;;;;;;5067613;28;20403;-66
2022/10/05 13:56:15;;;;;;;;;;;17.70;99.90;;;;;;5075457;28;19979;-67
2022/10/05 13:58:46;;;;;;;;;;;17.60;99.90;;;;;;5077229;28;19932;-66
2022/10/05 14:01:15;;;;;;;;;;;17.60;99.90;;;;;;5075491;28;19933;-67
2022/10/05 14:04:02;;;;;;;;;;;17.80;99.90;;;;;;5076389;28;20378;-68
2022/10/05 14:06:29;;;;;;;;;;;17.60;99.90;;;;;;5062440;28;19929;-67
2022/10/05 14:08:58;;;;;;;;;;;17.70;99.90;;;;;;5051477;28;19932;-66
2022/10/05 14:11:26;;;;;;;;;;;17.70;99.90;;;;;;5052320;28;19960;-67
2022/10/05 14:14:01;;;;;;;;;;;17.80;99.90;;;;;;5052385;28;20285;-67
2022/10/05 14:16:28;;;;;;;;;;;17.80;99.90;;;;;;5053104;28;19985;-66
2022/10/05 14:18:56;;;;;;;;;;;17.70;99.90;;;;;;5039459;28;20376;-67
2022/10/05 14:21:24;;;;;;;;;;;17.80;99.90;;;;;;5034454;28;19925;-66
2022/10/05 14:23:51;;;;;;;;;;;17.80;99.90;;;;;;5039949;28;20375;-67
2022/10/05 14:26:20;;;;;;;;;;;17.80;99.90;;;;;;5038960;28;19931;-66
2022/10/05 14:29:00;;;;;;;;;;;17.80;99.90;;;;;;5031585;28;19932;-67
2022/10/05 14:31:28;;;;;;;;;;;17.90;99.90;;;;;;5031415;28;20410;-66
2022/10/05 14:33:57;;;;;;;;;;;17.90;99.90;;;;;;5047126;28;20066;-65
2022/10/05 14:36:33;;;;;;;;;;;18.00;99.90;;;;;;5047725;28;20012;-66
2022/10/05 14:39:03;;;;;;;;;;;17.90;99.90;;;;;;5036650;28;19956;-66
2022/10/05 14:41:36;;;;;;;;;;;17.80;99.90;;;;;;5038916;28;19925;-66
2022/10/05 14:44:04;;;;;;;;;;;17.80;99.90;;;;;;5041065;28;20375;-66
2022/10/05 14:46:32;;;;;;;;;;;17.90;99.90;;;;;;5037718;28;19924;-67
2022/10/05 14:49:19;;;;;;;;;;;18.00;99.90;;;;;;5041550;28;19936;-67
2022/10/05 14:51:47;;;;;;;;;;;18.00;99.90;;;;;;5042456;28;19925;-66
2022/10/05 14:54:41;;;;;;;;;;;18.00;99.90;;;;;;5035880;28;20016;-67
2022/10/05 14:57:16;;;;;;;;;;;17.90;99.90;;;;;;5034073;28;20386;-66
2022/10/05 14:59:52;;;;;;;;;;;18.00;99.90;;;;;;5035976;28;19929;-67
2022/10/05 15:02:38;;;;;;;;;;;17.90;99.90;;;;;;5040527;28;20008;-67
2022/10/05 15:05:08;;;;;;;;;;;17.80;99.90;;;;;;5044114;28;20272;-68
2022/10/05 15:07:38;;;;;;;;;;;17.90;99.90;;;;;;5049177;28;19925;-66
2022/10/05 15:10:21;;;;;;;;;;;17.90;99.90;;;;;;5054570;28;20454;-68
2022/10/05 15:12:50;;;;;;;;;;;18.00;99.90;;;;;;5061638;28;20444;-67
2022/10/05 15:15:24;;;;;;;;;;;18.00;99.90;;;;;;5061354;28;19971;-67
2022/10/05 15:17:53;;;;;;;;;;;18.00;99.90;;;;;;5057348;28;20737;-66
2022/10/05 15:20:24;;;;;;;;;;;17.90;99.90;;;;;;5057702;28;19925;-66
2022/10/05 15:22:54;;;;;;;;;;;17.90;99.90;;;;;;5060692;28;20015;-66
2022/10/05 15:25:25;;;;;;;;;;;17.90;99.90;;;;;;5057689;28;20659;-67
2022/10/05 15:28:06;;;;;;;;;;;17.90;99.90;;;;;;5056168;28;19932;-67
2022/10/05 15:30:35;;;;;;;;;;;17.90;99.90;;;;;;5054026;28;19983;-67
2022/10/05 15:33:07;;;;;;;;;;;17.80;99.90;;;;;;5060958;28;20023;-66
2022/10/05 15:35:40;;;;;;;;;;;17.80;99.90;;;;;;5061441;28;19970;-66
2022/10/05 15:38:19;;;;;;;;;;;17.80;99.90;;;;;;5057496;28;19931;-66
2022/10/05 15:40:49;;;;;;;;;;;17.80;99.90;;;;;;5057575;28;19925;-66
2022/10/05 15:43:18;;;;;;;;;;;17.80;99.90;;;;;;5061312;28;19925;-66
2022/10/05 15:45:49;;;;;;;;;;;17.80;99.90;;;;;;5056484;28;19932;-63
2022/10/05 15:48:19;;;;;;;;;;;17.80;99.90;;;;;;5060492;28;19925;-67
2022/10/05 15:50:55;;;;;;;;;;;17.80;99.90;;;;;;5060814;28;19932;-67
2022/10/05 15:53:25;;;;;;;;;;;17.80;99.90;;;;;;5055001;28;19968;-67
2022/10/05 15:55:55;;;;;;;;;;;17.80;99.90;;;;;;5056251;28;19982;-66
2022/10/05 15:58:32;;;;;;;;;;;17.80;99.90;;;;;;5066336;28;19925;-64
2022/10/05 16:01:04;;;;;;;;;;;17.80;99.90;;;;;;5060338;28;19925;-67
2022/10/05 16:03:39;;;;;;;;;;;17.80;99.90;;;;;;5051892;28;20306;-67
2022/10/05 16:09:16;;;;;;;;;;;17.70;99.90;;;;;;5059099;28;20045;-68
2022/10/05 16:11:51;;;;;;;;;;;17.80;99.90;;;;;;5052914;28;20020;-66
2022/10/05 16:14:36;;;;;;;;;;;17.70;99.90;;;;;;5053272;28;19960;-67
2022/10/05 16:17:12;;;;;;;;;;;17.80;99.90;;;;;;5060107;28;19924;-67
2022/10/05 16:19:42;;;;;;;;;;;17.70;99.90;;;;;;5050375;28;19935;-66
2022/10/05 16:22:15;;;;;;;;;;;17.70;99.90;;;;;;5060390;28;19956;-67
2022/10/05 16:25:00;;;;;;;;;;;17.70;99.90;;;;;;5052275;28;19925;-66
2022/10/05 16:27:31;;;;;;;;;;;17.70;99.90;;;;;;5061829;28;19924;-67
2022/10/05 16:30:01;;;;;;;;;;;17.70;99.90;;;;;;5068484;28;20440;-66
2022/10/05 16:32:32;;;;;;;;;;;17.70;99.90;;;;;;5051667;28;19956;-67
2022/10/05 16:35:02;;;;;;;;;;;17.70;99.90;;;;;;5054909;28;19924;-67
2022/10/05 16:37:34;;;;;;;;;;;17.70;99.90;;;;;;5058239;28;20406;-66
2022/10/05 16:40:03;;;;;;;;;;;17.70;99.90;;;;;;5057140;28;19974;-67
2022/10/05 16:42:41;;;;;;;;;;;17.70;99.90;;;;;;5051818;28;19925;-69
2022/10/05 16:45:23;;;;;;;;;;;17.60;99.90;;;;;;5057974;28;19932;-67
2022/10/05 16:47:55;;;;;;;;;;;17.60;99.90;;;;;;5056479;28;20015;-66
2022/10/05 16:50:27;;;;;;;;;;;17.70;99.90;;;;;;5049316;28;19932;-67
2022/10/05 16:52:56;;;;;;;;;;;17.70;99.90;;;;;;5053448;28;19929;-67
2022/10/05 16:55:28;;;;;;;;;;;17.60;99.90;;;;;;5053036;28;19972;-67
2022/10/05 16:57:56;;;;;;;;;;;17.60;99.90;;;;;;5059754;28;19932;-68
2022/10/05 17:00:36;;;;;;;;;;;17.70;99.90;;;;;;5059368;28;20023;-68
2022/10/05 17:03:22;;;;;;;;;;;17.70;99.90;;;;;;5053790;28;19943;-68
2022/10/05 17:06:01;;;;;;;;;;;17.70;99.90;;;;;;5054257;28;19928;-67
2022/10/05 17:08:44;;;;;;;;;;;17.70;99.90;;;;;;5056095;28;20007;-66
2022/10/05 17:11:17;;;;;;;;;;;17.70;99.90;;;;;;5056667;28;20386;-67
2022/10/05 17:13:55;;;;;;;;;;;17.70;99.90;;;;;;5052214;28;19928;-68
2022/10/05 17:16:29;;;;;;;;;;;17.70;99.90;;;;;;5055247;28;20398;-70
2022/10/05 17:19:14;;;;;;;;;;;17.70;99.90;;;;;;5058291;28;20019;-68
2022/10/05 17:21:45;;;;;;;;;;;17.70;99.90;;;;;;5052038;28;19931;-68
2022/10/05 17:24:23;;;;;;;;;;;17.70;99.90;;;;;;5057886;28;20299;-67
2022/10/05 17:27:06;;;;;;;;;;;17.70;99.90;;;;;;5054192;28;19933;-67
2022/10/05 17:29:50;;;;;;;;;;;17.70;99.90;;;;;;5050606;28;19924;-68
2022/10/05 17:32:38;;;;;;;;;;;17.70;99.90;;;;;;5053738;28;19932;-70
2022/10/05 17:35:26;;;;;;;;;;;17.70;99.90;;;;;;5057396;28;19933;-69
2022/10/05 17:38:16;;;;;;;;;;;17.80;99.90;;;;;;5062329;28;20414;-66
2022/10/05 17:40:57;;;;;;;;;;;17.80;99.90;;;;;;5049343;28;19975;-68
2022/10/05 17:43:28;;;;;;;;;;;17.80;99.90;;;;;;5058463;28;20015;-68
2022/10/05 17:46:02;;;;;;;;;;;17.80;99.90;;;;;;5051457;28;19939;-67
2022/10/05 17:48:43;;;;;;;;;;;17.80;99.90;;;;;;5074123;28;20392;-68
2022/10/05 17:57:19;;;;;;;;;;;17.80;99.90;;;;;;5008824;28;19930;-66
2022/10/05 17:59:55;;;;;;;;;;;17.80;99.90;;;;;;4996095;28;20360;-66
2022/10/05 18:02:25;;;;;;;;;;;17.80;99.90;;;;;;5041563;28;19930;-65
2022/10/05 18:05:01;;;;;;;;;;;17.80;99.90;;;;;;5058890;28;19925;-67
2022/10/05 18:07:28;;;;;;;;;;;17.80;99.90;;;;;;5064147;28;19928;-67
2022/10/05 18:09:56;;;;;;;;;;;17.80;99.90;;;;;;5064223;28;20011;-66
2022/10/05 18:12:37;;;;;;;;;;;17.80;99.90;;;;;;5054662;28;19985;-66
2022/10/05 18:15:20;;;;;;;;;;;17.80;99.90;;;;;;5058536;28;19932;-68
2022/10/05 18:17:50;;;;;;;;;;;17.90;99.90;;;;;;5058618;28;19935;-66
2022/10/05 18:20:28;;;;;;;;;;;17.90;99.90;;;;;;5055381;28;20325;-67
2022/10/05 18:23:10;;;;;;;;;;;17.80;99.90;;;;;;5060502;28;19935;-66
2022/10/05 18:25:43;;;;;;;;;;;17.90;99.90;;;;;;5056381;28;20342;-67
2022/10/05 18:28:18;;;;;;;;;;;17.90;99.90;;;;;;5056084;28;20074;-67
2022/10/05 18:30:58;;;;;;;;;;;17.90;99.90;;;;;;5056218;28;19999;-67
2022/10/05 18:33:37;;;;;;;;;;;17.90;99.90;;;;;;5057294;28;19928;-66
2022/10/05 18:36:13;;;;;;;;;;;18.00;99.90;;;;;;5063239;28;20019;-66
2022/10/05 18:38:46;;;;;;;;;;;18.00;99.90;;;;;;5068382;28;20019;-66
2022/10/05 18:41:18;;;;;;;;;;;18.10;99.90;;;;;;5059528;28;20008;-67
2022/10/05 18:43:52;;;;;;;;;;;18.10;99.90;;;;;;5061432;28;19925;-67
2022/10/05 18:46:23;;;;;;;;;;;18.10;99.90;;;;;;5065696;28;20011;-67
2022/10/05 18:48:58;;;;;;;;;;;18.10;99.90;;;;;;5075369;28;19930;-66
2022/10/05 18:51:27;;;;;;;;;;;18.10;99.90;;;;;;5069045;28;20011;-66
2022/10/05 18:54:01;;;;;;;;;;;18.10;99.90;;;;;;5054999;28;20007;-67
2022/10/05 18:56:30;;;;;;;;;;;18.20;99.90;;;;;;5056707;28;20369;-68
2022/10/05 18:59:04;;;;;;;;;;;18.10;99.90;;;;;;5056727;28;19924;-67
2022/10/05 19:01:54;;;;;;;;;;;18.10;99.90;;;;;;5056556;28;20425;-67
2022/10/05 19:04:26;;;;;;;;;;;18.00;99.90;;;;;;5045793;28;19947;-67
2022/10/05 19:07:00;;;;;;;;;;;17.10;99.90;;;;;;5044683;28;19925;-66
2022/10/05 19:09:35;;;;;;;;;;;16.60;99.90;;;;;;5033903;28;19933;-67
2022/10/05 19:12:07;;;;;;;;;;;16.30;99.90;;;;;;5034792;28;19924;-66
2022/10/05 19:14:41;;;;;;;;;;;16.10;99.90;;;;;;5035602;28;19979;-65
2022/10/05 19:17:17;;;;;;;;;;;16.10;99.90;;;;;;5035954;28;20030;-67
2022/10/05 19:19:51;;;;;;;;;;;16.10;99.90;;;;;;5032296;28;19944;-67
2022/10/05 19:22:24;;;;;;;;;;;16.10;99.90;;;;;;5033980;28;19951;-66
2022/10/05 19:25:03;;;;;;;;;;;16.10;99.90;;;;;;5036852;28;19925;-66
2022/10/05 19:27:37;;;;;;;;;;;16.10;99.90;;;;;;5029785;28;20023;-66
2022/10/05 19:30:19;;;;;;;;;;;16.20;99.90;;;;;;5037802;28;19939;-66
2022/10/05 19:32:54;;;;;;;;;;;16.10;99.90;;;;;;5036472;28;19929;-66
2022/10/05 19:35:25;;;;;;;;;;;16.20;99.90;;;;;;5037137;28;20638;-67
2022/10/05 19:37:56;;;;;;;;;;;16.20;99.90;;;;;;5044578;28;19931;-67
2022/10/05 19:40:27;;;;;;;;;;;16.10;99.90;;;;;;5044626;28;19931;-66
2022/10/05 19:43:01;;;;;;;;;;;16.10;99.90;;;;;;5042082;28;20019;-66
2022/10/05 19:45:32;;;;;;;;;;;16.10;99.90;;;;;;5046107;28;19936;-67
2022/10/05 19:48:06;;;;;;;;;;;16.10;99.90;;;;;;5035022;28;20411;-67
2022/10/05 19:50:36;;;;;;;;;;;16.00;99.90;;;;;;5034246;28;20015;-67
2022/10/05 19:53:07;;;;;;;;;;;16.10;99.90;;;;;;5036452;28;20371;-67
2022/10/05 19:55:35;;;;;;;;;;;16.10;99.90;;;;;;5038390;28;19932;-67
2022/10/05 19:58:15;;;;;;;;;;;16.10;99.90;;;;;;5041135;28;20358;-67
2022/10/05 20:00:45;;;;;;;;;;;16.10;99.90;;;;;;5031817;28;19925;-66
2022/10/05 20:03:15;;;;;;;;;;;16.10;99.90;;;;;;5032958;28;19925;-66
2022/10/05 20:05:42;;;;;;;;;;;16.10;99.90;;;;;;5035218;28;19964;-65
2022/10/05 20:08:14;;;;;;;;;;;16.10;99.90;;;;;;5061069;28;19972;-66
2022/10/05 20:10:41;;;;;;;;;;;16.10;99.90;;;;;;5057970;28;19924;-66
2022/10/05 20:13:18;;;;;;;;;;;16.20;99.90;;;;;;5068006;28;19925;-66
2022/10/05 20:21:38;;;;;;;;;;;16.10;99.90;;;;;;5054901;28;20023;-66
2022/10/05 20:24:08;;;;;;;;;;;16.10;99.90;;;;;;5056875;28;20007;-66
2022/10/05 20:29:23;;;;;;;;;;;16.10;99.90;;;;;;5058299;28;19931;-65
2022/10/05 20:31:51;;;;;;;;;;;16.20;99.90;;;;;;5057711;28;19924;-65
2022/10/05 20:34:18;;;;;;;;;;;16.20;99.90;;;;;;5057172;28;19935;-65
2022/10/05 20:36:44;;;;;;;;;;;16.20;99.90;;;;;;5055131;28;19924;-66
2022/10/05 20:39:12;;;;;;;;;;;16.20;99.90;;;;;;5080243;28;19924;-64
2022/10/05 20:41:38;;;;;;;;;;;16.20;99.90;;;;;;5057925;28;19928;-64
2022/10/05 20:44:05;;;;;;;;;;;16.20;99.90;;;;;;5059217;28;19930;-66
2022/10/05 20:46:33;;;;;;;;;;;16.10;99.90;;;;;;5065121;28;19978;-65
2022/10/05 20:49:02;;;;;;;;;;;16.10;99.90;;;;;;5064734;28;19931;-66
2022/10/05 20:51:29;;;;;;;;;;;16.20;99.90;;;;;;5056230;28;19924;-65
2022/10/05 20:53:56;;;;;;;;;;;16.20;99.90;;;;;;5064147;28;19925;-65
2022/10/05 20:56:23;;;;;;;;;;;16.20;99.90;;;;;;5056382;28;20069;-65
2022/10/05 20:58:49;;;;;;;;;;;16.10;99.90;;;;;;5051586;28;20326;-65
2022/10/05 21:01:17;;;;;;;;;;;16.20;99.90;;;;;;5051753;28;19929;-66
2022/10/05 21:03:43;;;;;;;;;;;16.20;99.90;;;;;;5051871;28;19995;-66
2022/10/05 21:06:11;;;;;;;;;;;16.10;99.90;;;;;;5055541;28;19943;-66
2022/10/05 21:08:38;;;;;;;;;;;16.10;99.90;;;;;;5066184;28;20030;-66
2022/10/05 21:11:07;;;;;;;;;;;16.10;99.90;;;;;;5054566;28;19929;-66
2022/10/05 21:13:34;;;;;;;;;;;16.10;99.90;;;;;;5065530;28;19940;-66
2022/10/05 21:16:01;;;;;;;;;;;16.00;99.90;;;;;;5052441;28;19928;-66
2022/10/05 21:18:28;;;;;;;;;;;16.00;99.90;;;;;;5053926;28;19951;-67
2022/10/05 21:20:54;;;;;;;;;;;16.00;99.90;;;;;;5060076;28;19932;-66
2022/10/05 21:23:22;;;;;;;;;;;16.00;99.90;;;;;;5063565;28;20015;-66
2022/10/05 21:25:49;;;;;;;;;;;15.90;99.90;;;;;;5061618;28;19933;-66
2022/10/05 21:28:17;;;;;;;;;;;15.90;99.90;;;;;;5062463;28;19978;-66
2022/10/05 21:30:43;;;;;;;;;;;15.90;99.90;;;;;;5064741;28;19932;-66
2022/10/05 21:33:10;;;;;;;;;;;15.90;99.90;;;;;;5061054;28;19924;-66
2022/10/05 21:35:37;;;;;;;;;;;15.90;99.90;;;;;;5056385;28;20294;-66
2022/10/05 21:38:03;;;;;;;;;;;15.90;99.90;;;;;;5058215;28;19935;-66
2022/10/05 21:40:31;;;;;;;;;;;15.90;99.90;;;;;;5054148;28;20012;-66
2022/10/05 21:42:58;;;;;;;;;;;15.80;99.90;;;;;;5064931;28;20440;-66
2022/10/05 21:45:25;;;;;;;;;;;15.70;99.90;;;;;;5083912;28;20076;-66
2022/10/05 21:47:51;;;;;;;;;;;15.70;99.90;;;;;;5062309;28;20016;-66
2022/10/05 21:50:18;;;;;;;;;;;15.50;99.90;;;;;;5069854;28;19928;-66
2022/10/05 21:52:45;;;;;;;;;;;15.50;99.90;;;;;;5058040;28;19925;-66
2022/10/05 21:55:11;;;;;;;;;;;15.50;99.90;;;;;;5055463;28;19924;-66
2022/10/05 21:57:40;;;;;;;;;;;15.40;99.90;;;;;;5063325;28;19935;-66
2022/10/05 22:00:08;;;;;;;;;;;15.40;99.90;;;;;;5055643;28;19925;-66
2022/10/05 22:02:34;;;;;;;;;;;15.30;99.90;;;;;;5066358;28;20409;-66
2022/10/05 22:05:01;;;;;;;;;;;15.30;99.90;;;;;;5056711;28;19935;-66
2022/10/05 22:07:28;;;;;;;;;;;15.20;99.90;;;;;;5066007;28;19924;-66
2022/10/05 22:09:55;;;;;;;;;;;15.10;99.90;;;;;;5055973;28;19925;-65
2022/10/05 22:12:22;;;;;;;;;;;15.10;99.90;;;;;;5060545;28;20390;-64
2022/10/05 22:14:50;;;;;;;;;;;15.00;99.90;;;;;;5056139;28;19929;-64
2022/10/05 22:17:23;;;;;;;;;;;14.90;99.90;;;;;;5056580;28;19931;-64
2022/10/05 22:19:50;;;;;;;;;;;14.90;99.90;;;;;;5081426;28;19924;-64
2022/10/05 22:22:16;;;;;;;;;;;14.80;99.90;;;;;;5054021;28;19924;-65
2022/10/05 22:24:43;;;;;;;;;;;14.80;99.90;;;;;;5054611;28;19924;-65
2022/10/05 22:27:10;;;;;;;;;;;14.70;99.90;;;;;;5058970;28;19924;-65
2022/10/05 22:29:36;;;;;;;;;;;14.70;99.90;;;;;;5054418;28;19925;-65
2022/10/05 22:32:04;;;;;;;;;;;14.60;99.90;;;;;;5061702;28;19933;-65
2022/10/05 22:34:31;;;;;;;;;;;14.60;99.90;;;;;;5066167;28;19932;-65
2022/10/05 22:36:58;;;;;;;;;;;14.50;99.90;;;;;;5053134;28;19932;-65
2022/10/05 22:39:25;;;;;;;;;;;14.50;99.90;;;;;;5054162;28;19925;-65
2022/10/05 22:41:51;;;;;;;;;;;14.40;99.90;;;;;;5067283;28;20378;-65
2022/10/05 22:44:18;;;;;;;;;;;14.40;99.90;;;;;;5058406;28;19924;-65
2022/10/05 22:46:45;;;;;;;;;;;14.30;99.90;;;;;;5070098;28;19930;-65
2022/10/05 22:49:13;;;;;;;;;;;14.30;99.90;;;;;;5058323;28;19930;-64
2022/10/05 22:51:39;;;;;;;;;;;14.30;99.90;;;;;;5060848;28;20417;-65
2022/10/05 22:54:06;;;;;;;;;;;14.20;99.90;;;;;;5056567;28;20409;-65
2022/10/05 22:56:33;;;;;;;;;;;14.20;99.90;;;;;;5065290;28;19925;-64
2022/10/05 22:58:59;;;;;;;;;;;14.20;99.90;;;;;;5058556;28;19929;-65
2022/10/05 23:01:26;;;;;;;;;;;14.10;99.90;;;;;;5057573;28;19924;-65
2022/10/05 23:03:54;;;;;;;;;;;14.10;99.90;;;;;;5060964;28;19924;-64
2022/10/05 23:06:22;;;;;;;;;;;14.10;99.90;;;;;;5059990;28;19970;-65
2022/10/05 23:08:49;;;;;;;;;;;14.00;99.90;;;;;;5052472;28;19936;-65
2022/10/05 23:11:17;;;;;;;;;;;14.00;99.90;;;;;;5054076;28;19928;-65
2022/10/05 23:13:43;;;;;;;;;;;13.90;99.90;;;;;;5055604;28;19947;-65
2022/10/05 23:16:11;;;;;;;;;;;13.80;99.90;;;;;;5059993;28;20031;-65
2022/10/05 23:18:38;;;;;;;;;;;13.80;99.90;;;;;;5054601;28;20369;-65
2022/10/05 23:21:06;;;;;;;;;;;13.70;99.90;;;;;;5053632;28;20441;-65
2022/10/05 23:23:35;;;;;;;;;;;13.80;99.90;;;;;;5052754;28;19971;-65
2022/10/05 23:26:01;;;;;;;;;;;13.70;99.90;;;;;;5064725;28;20413;-65
2022/10/05 23:28:28;;;;;;;;;;;13.70;99.90;;;;;;5061463;28;20141;-65
2022/10/05 23:30:57;;;;;;;;;;;13.70;99.90;;;;;;5052756;28;19932;-65
2022/10/05 23:33:24;;;;;;;;;;;13.70;99.90;;;;;;5057705;28;19924;-65
2022/10/05 23:35:56;;;;;;;;;;;13.60;99.90;;;;;;5064521;28;20469;-65
2022/10/05 23:38:23;;;;;;;;;;;13.60;99.90;;;;;;5058244;28;19925;-65
2022/10/05 23:40:51;;;;;;;;;;;13.50;99.90;;;;;;5067782;28;19931;-65
2022/10/05 23:43:18;;;;;;;;;;;13.50;99.90;;;;;;5064309;28;20015;-65
2022/10/05 23:45:44;;;;;;;;;;;13.50;99.90;;;;;;5054199;28;19929;-64
2022/10/05 23:48:11;;;;;;;;;;;13.40;99.90;;;;;;5053486;28;19971;-67
2022/10/05 23:50:38;;;;;;;;;;;13.40;99.90;;;;;;5051270;28;20268;-66
2022/10/05 23:53:06;;;;;;;;;;;13.30;99.90;;;;;;5059421;28;20365;-65
2022/10/05 23:55:32;;;;;;;;;;;13.30;99.90;;;;;;5055990;28;19983;-66
2022/10/05 23:58:00;;;;;;;;;;;13.30;99.90;;;;;;5057223;28;20032;-66
